Shuoumaru — JD3522 — position and weather

sailwx.info

Track history (hours):
 
Tides and Currents Weather Stations Pressure Air Temp Water Temp Dewpoint Dewpoint Depression Visibility Wind Speed Wind Dir Waves Ship Positions

Shuoumaru

Last reported at 2017-Dec-17 23:00 UTC. Time now 2017-Dec-17 23:23 UTC.
Position N 34°36' E 138°57'.

Length 73 m; draft 3.8 m.

Type: Tanker. MMSI: 431004588.

Date/timePositionNaut miles runAvg speedWind from/ knotsBaromVisibWave heightAir tempDewpointWater temp
2017-Dec-17 23:00N 34°36' E 138°57'612.4
2017-Dec-17 22:30N 34°40' E 139°04'713.0
2017-Dec-17 21:57N 34°44' E 139°11'712.7
2017-Dec-17 21:23N 34°48' E 139°18'513.0
2017-Dec-17 20:57N 34°50' E 139°24'2913.4
2017-Dec-17 18:48N 34°54' E 139°59'713.4
2017-Dec-17 18:18N 34°57' E 140°06'39512.6
2017-Dec-16 10:53N 41°27' E 141°30'814.0
2017-Dec-16 10:20N 41°34' E 141°26'612.4
2017-Dec-16 09:53N 41°39' E 141°22'14 0.5
2017-Dec-15 08:11N 41°27' E 141°31'  
2017-Dec-12 05:38N 34°37' E 136°34'0 0.0
2017-Dec-12 05:27N 34°37' E 136°34'0 0.0
2017-Dec-11 23:53N 34°37' E 136°34'3 7.1
2017-Dec-11 23:25N 34°38' E 136°37'243 7.2
2017-Dec-10 13:39N 33°17' E 132°01'312.8
2017-Dec-10 13:25N 33°19' E 131°59'512.4
2017-Dec-10 13:00N 33°23' E 131°56'912.9
2017-Dec-10 12:20N 33°31' E 131°51'413.0
2017-Dec-10 12:01N 33°34' E 131°48'612.8
2017-Dec-10 11:30N 33°39' E 131°43'612.8
2017-Dec-10 11:00N 33°43' E 131°36'612.9
2017-Dec-10 10:31N 33°45' E 131°29'713.2
2017-Dec-10 10:00N 33°48' E 131°22'713.3
2017-Dec-10 09:31N 33°51' E 131°15'713.3
2017-Dec-10 09:00N 33°54' E 131°08'613.0
2017-Dec-10 08:31N 33°58' E 131°01'510.2
2017-Dec-10 08:00N 33°56' E 130°56'4 8.2
2017-Dec-10 07:30N 33°55' E 130°51'0 0.2
2017-Dec-10 07:01N 33°55' E 130°51'0 0.0
2017-Dec-10 06:30N 33°55' E 130°51'0 0.0
2017-Dec-10 06:01N 33°55' E 130°51'0 0.0
2017-Dec-10 05:30N 33°55' E 130°51'0 0.0
2017-Dec-10 05:01N 33°55' E 130°51'0 0.0
2017-Dec-10 04:31N 33°55' E 130°51'0 0.0
2017-Dec-10 04:00N 33°55' E 130°51'0 0.0
2017-Dec-10 03:31N 33°55' E 130°51'0 0.0
2017-Dec-10 03:00N 33°55' E 130°51'0 0.0
2017-Dec-10 02:30N 33°55' E 130°51'0 0.0
2017-Dec-10 02:00N 33°55' E 130°51'0 0.0
2017-Dec-10 01:30N 33°55' E 130°51'0 0.0
2017-Dec-10 01:00N 33°55' E 130°51'0 0.0
2017-Dec-10 00:30N 33°55' E 130°51'0 0.0
2017-Dec-10 00:00N 33°55' E 130°51'0 0.0
2017-Dec-09 23:30N 33°55' E 130°51'0 0.0
2017-Dec-09 23:00N 33°55' E 130°51'2 4.3
2017-Dec-09 22:30N 33°56' E 130°53'0 0.2
2017-Dec-09 22:00N 33°56' E 130°53'0 0.0
2017-Dec-09 21:30N 33°56' E 130°53'0 0.0
2017-Dec-09 21:00N 33°56' E 130°53'0 0.0
2017-Dec-09 20:30N 33°56' E 130°53'0 0.0
2017-Dec-09 20:00N 33°56' E 130°53'0 0.1
2017-Dec-09 19:30N 33°56' E 130°53'0 0.0
2017-Dec-09 19:00N 33°56' E 130°53'0 0.0
2017-Dec-09 18:30N 33°56' E 130°53'0 0.0
2017-Dec-09 18:01N 33°56' E 130°53'0 0.0
2017-Dec-09 17:31N 33°56' E 130°53'1 1.5
2017-Dec-09 17:00N 33°55' E 130°54'4 8.6
2017-Dec-09 16:30N 33°58' E 130°58'510.5
2017-Dec-09 16:01N 33°56' E 131°03'1 1.4
2017-Dec-09 15:31N 33°55' E 131°04'0 0.2
2017-Dec-09 15:00N 33°55' E 131°04'3 6.2
2017-Dec-09 14:31N 33°55' E 131°07'713.4
2017-Dec-09 14:00N 33°52' E 131°15'713.6
2017-Dec-09 13:31N 33°51' E 131°23'713.6
2017-Dec-09 13:00N 33°50' E 131°31'713.9
2017-Dec-09 12:30N 33°49' E 131°39'713.5
2017-Dec-09 12:00N 33°47' E 131°47'1213.6
2017-Dec-09 11:08N 33°46' E 132°01'214.3
2017-Dec-09 11:00N 33°46' E 132°03'714.1
2017-Dec-09 10:30N 33°49' E 132°11'813.7
2017-Dec-09 09:57N 33°50' E 132°20'713.8
2017-Dec-09 09:27N 33°53' E 132°27'914.4
2017-Dec-09 08:48N 33°60' E 132°35'414.7
2017-Dec-09 08:31N 34°02' E 132°40'10713.1
2017-Dec-09 00:18N 34°47' E 134°38'0 0.3
2017-Dec-08 23:57N 34°47' E 134°38'0 0.0
2017-Dec-08 23:28N 34°47' E 134°38'0 0.0
2017-Dec-08 22:59N 34°47' E 134°38'1 1.5
2017-Dec-08 22:29N 34°46' E 134°38'1 2.9
2017-Dec-08 21:58N 34°45' E 134°37'0 0.0
2017-Dec-08 21:30N 34°45' E 134°37'0 0.0
2017-Dec-08 20:57N 34°45' E 134°37'0 0.0
2017-Dec-08 20:30N 34°45' E 134°37'0 0.0
2017-Dec-08 19:59N 34°45' E 134°37'0 0.0
2017-Dec-08 19:30N 34°45' E 134°37'0 0.0
2017-Dec-08 18:59N 34°45' E 134°37'0 0.0
2017-Dec-08 18:30N 34°45' E 134°37'0 0.0
2017-Dec-08 18:00N 34°45' E 134°37'0 0.5
2017-Dec-08 17:30N 34°45' E 134°36'813.0
2017-Dec-08 16:53N 34°41' E 134°28'1713.3
2017-Dec-08 15:34N 34°32' E 134°09'7711.8
2017-Dec-08 09:02N 33°60' E 132°45'111.9
2017-Dec-08 08:59N 33°59' E 132°44'612.4
2017-Dec-08 08:30N 33°55' E 132°40'  
Track history (hours):
 
Tides and Currents Weather Stations Pressure Air Temp Water Temp Dewpoint Dewpoint Depression Visibility Wind Speed Wind Dir Waves Ship Positions

Shuoumaru

Last reported at 2017-Dec-17 23:00 UTC. Time now 2017-Dec-17 23:23 UTC.
Position N 34°36' E 138°57'.

Length 73 m; draft 3.8 m.

Type: Tanker. MMSI: 431004588.

Date/timePositionNaut miles runAvg speedWind from/ knotsBaromVisibWave heightAir tempDewpointWater temp
2017-Dec-17 23:00N 34°36' E 138°57'612.4
2017-Dec-17 22:30N 34°40' E 139°04'713.0
2017-Dec-17 21:57N 34°44' E 139°11'712.7
2017-Dec-17 21:23N 34°48' E 139°18'513.0
2017-Dec-17 20:57N 34°50' E 139°24'2913.4
2017-Dec-17 18:48N 34°54' E 139°59'713.4
2017-Dec-17 18:18N 34°57' E 140°06'39512.6
2017-Dec-16 10:53N 41°27' E 141°30'814.0
2017-Dec-16 10:20N 41°34' E 141°26'612.4
2017-Dec-16 09:53N 41°39' E 141°22'14 0.5
2017-Dec-15 08:11N 41°27' E 141°31'  
2017-Dec-12 05:38N 34°37' E 136°34'0 0.0
2017-Dec-12 05:27N 34°37' E 136°34'0 0.0
2017-Dec-11 23:53N 34°37' E 136°34'3 7.1
2017-Dec-11 23:25N 34°38' E 136°37'243 7.2
2017-Dec-10 13:39N 33°17' E 132°01'312.8
2017-Dec-10 13:25N 33°19' E 131°59'512.4
2017-Dec-10 13:00N 33°23' E 131°56'912.9
2017-Dec-10 12:20N 33°31' E 131°51'413.0
2017-Dec-10 12:01N 33°34' E 131°48'612.8
2017-Dec-10 11:30N 33°39' E 131°43'612.8
2017-Dec-10 11:00N 33°43' E 131°36'612.9
2017-Dec-10 10:31N 33°45' E 131°29'713.2
2017-Dec-10 10:00N 33°48' E 131°22'713.3
2017-Dec-10 09:31N 33°51' E 131°15'713.3
2017-Dec-10 09:00N 33°54' E 131°08'613.0
2017-Dec-10 08:31N 33°58' E 131°01'510.2
2017-Dec-10 08:00N 33°56' E 130°56'4 8.2
2017-Dec-10 07:30N 33°55' E 130°51'0 0.2
2017-Dec-10 07:01N 33°55' E 130°51'0 0.0
2017-Dec-10 06:30N 33°55' E 130°51'0 0.0
2017-Dec-10 06:01N 33°55' E 130°51'0 0.0
2017-Dec-10 05:30N 33°55' E 130°51'0 0.0
2017-Dec-10 05:01N 33°55' E 130°51'0 0.0
2017-Dec-10 04:31N 33°55' E 130°51'0 0.0
2017-Dec-10 04:00N 33°55' E 130°51'0 0.0
2017-Dec-10 03:31N 33°55' E 130°51'0 0.0
2017-Dec-10 03:00N 33°55' E 130°51'0 0.0
2017-Dec-10 02:30N 33°55' E 130°51'0 0.0
2017-Dec-10 02:00N 33°55' E 130°51'0 0.0
2017-Dec-10 01:30N 33°55' E 130°51'0 0.0
2017-Dec-10 01:00N 33°55' E 130°51'0 0.0
2017-Dec-10 00:30N 33°55' E 130°51'0 0.0
2017-Dec-10 00:00N 33°55' E 130°51'0 0.0
2017-Dec-09 23:30N 33°55' E 130°51'0 0.0
2017-Dec-09 23:00N 33°55' E 130°51'2 4.3
2017-Dec-09 22:30N 33°56' E 130°53'0 0.2
2017-Dec-09 22:00N 33°56' E 130°53'0 0.0
2017-Dec-09 21:30N 33°56' E 130°53'0 0.0
2017-Dec-09 21:00N 33°56' E 130°53'0 0.0
2017-Dec-09 20:30N 33°56' E 130°53'0 0.0
2017-Dec-09 20:00N 33°56' E 130°53'0 0.1
2017-Dec-09 19:30N 33°56' E 130°53'0 0.0
2017-Dec-09 19:00N 33°56' E 130°53'0 0.0
2017-Dec-09 18:30N 33°56' E 130°53'0 0.0
2017-Dec-09 18:01N 33°56' E 130°53'0 0.0
2017-Dec-09 17:31N 33°56' E 130°53'1 1.5
2017-Dec-09 17:00N 33°55' E 130°54'4 8.6
2017-Dec-09 16:30N 33°58' E 130°58'510.5
2017-Dec-09 16:01N 33°56' E 131°03'1 1.4
2017-Dec-09 15:31N 33°55' E 131°04'0 0.2
2017-Dec-09 15:00N 33°55' E 131°04'3 6.2
2017-Dec-09 14:31N 33°55' E 131°07'713.4
2017-Dec-09 14:00N 33°52' E 131°15'713.6
2017-Dec-09 13:31N 33°51' E 131°23'713.6
2017-Dec-09 13:00N 33°50' E 131°31'713.9
2017-Dec-09 12:30N 33°49' E 131°39'713.5
2017-Dec-09 12:00N 33°47' E 131°47'1213.6
2017-Dec-09 11:08N 33°46' E 132°01'214.3
2017-Dec-09 11:00N 33°46' E 132°03'714.1
2017-Dec-09 10:30N 33°49' E 132°11'813.7
2017-Dec-09 09:57N 33°50' E 132°20'713.8
2017-Dec-09 09:27N 33°53' E 132°27'914.4
2017-Dec-09 08:48N 33°60' E 132°35'414.7
2017-Dec-09 08:31N 34°02' E 132°40'10713.1
2017-Dec-09 00:18N 34°47' E 134°38'0 0.3
2017-Dec-08 23:57N 34°47' E 134°38'0 0.0
2017-Dec-08 23:28N 34°47' E 134°38'0 0.0
2017-Dec-08 22:59N 34°47' E 134°38'1 1.5
2017-Dec-08 22:29N 34°46' E 134°38'1 2.9
2017-Dec-08 21:58N 34°45' E 134°37'0 0.0
2017-Dec-08 21:30N 34°45' E 134°37'0 0.0
2017-Dec-08 20:57N 34°45' E 134°37'0 0.0
2017-Dec-08 20:30N 34°45' E 134°37'0 0.0
2017-Dec-08 19:59N 34°45' E 134°37'0 0.0
2017-Dec-08 19:30N 34°45' E 134°37'0 0.0
2017-Dec-08 18:59N 34°45' E 134°37'0 0.0
2017-Dec-08 18:30N 34°45' E 134°37'0 0.0
2017-Dec-08 18:00N 34°45' E 134°37'0 0.5
2017-Dec-08 17:30N 34°45' E 134°36'813.0
2017-Dec-08 16:53N 34°41' E 134°28'1713.3
2017-Dec-08 15:34N 34°32' E 134°09'7711.8
2017-Dec-08 09:02N 33°60' E 132°45'111.9
2017-Dec-08 08:59N 33°59' E 132°44'612.4
2017-Dec-08 08:30N 33°55' E 132°40'  

Dump ship's entire track history